createdAt,value
2018-02-24T00:00:02.513Z,2.2
2018-02-24T00:15:02.784Z,2.2
2018-02-24T00:30:03.097Z,2.2
2018-02-24T00:45:02.365Z,2.2
2018-02-24T01:00:02.614Z,2.2
2018-02-24T01:15:02.987Z,2.2
2018-02-24T01:30:02.460Z,2.2
2018-02-24T01:45:02.729Z,2.1
2018-02-24T02:00:03.280Z,2.1
2018-02-24T02:15:02.568Z,2.1
2018-02-24T02:30:02.952Z,2.1
2018-02-24T02:45:02.322Z,2.1
2018-02-24T03:00:02.678Z,2.1
2018-02-24T03:15:03.215Z,2.1
2018-02-24T03:30:02.709Z,2.1
2018-02-24T03:45:03.038Z,2.1
2018-02-24T04:00:02.419Z,2
2018-02-24T04:15:02.771Z,2
2018-02-24T04:30:03.145Z,2
2018-02-24T04:45:02.427Z,2
2018-02-24T05:00:02.696Z,1.9
2018-02-24T05:15:02.907Z,1.9
2018-02-24T05:30:02.325Z,1.9
2018-02-24T05:45:02.588Z,1.9
2018-02-24T06:00:02.890Z,1.9
2018-02-24T06:15:03.147Z,1.9
2018-02-24T06:30:02.628Z,1.8
2018-02-24T06:45:02.952Z,1.8
2018-02-24T07:00:03.341Z,1.8
2018-02-24T07:15:02.692Z,1.8
2018-02-24T07:30:03.015Z,1.8
2018-02-24T07:45:02.341Z,1.8
2018-02-24T08:00:02.580Z,1.8
2018-02-24T08:15:02.863Z,1.8
2018-02-24T08:30:03.232Z,1.8
2018-02-24T08:45:02.545Z,1.7
2018-02-24T09:00:02.801Z,1.8
2018-02-24T09:15:03.157Z,1.8
2018-02-24T09:30:02.556Z,1.8
2018-02-24T09:45:02.872Z,1.8
2018-02-24T10:00:03.141Z,1.8
2018-02-24T10:15:02.489Z,1.9
2018-02-24T10:30:02.965Z,1.9
2018-02-24T10:45:02.251Z,1.9
2018-02-24T11:00:02.505Z,1.9
2018-02-24T11:15:02.789Z,2
2018-02-24T11:30:03.145Z,2.1
2018-02-24T11:45:02.466Z,2.1
2018-02-24T12:00:02.766Z,2.1
2018-02-24T12:15:03.028Z,2.2
2018-02-24T12:30:02.494Z,2.2
2018-02-24T12:45:02.715Z,2.2
2018-02-24T13:00:03.013Z,2.3
2018-02-24T13:15:02.352Z,2.3
2018-02-24T13:30:02.729Z,2.4
2018-02-24T13:45:03.020Z,2.4
2018-02-24T14:00:02.398Z,2.4
2018-02-24T14:15:02.678Z,2.4
2018-02-24T14:30:03.022Z,2.4
2018-02-24T14:45:02.387Z,2.4
2018-02-24T15:00:02.727Z,2.4
2018-02-24T15:15:03.018Z,2.5
2018-02-24T15:30:02.480Z,2.5
2018-02-24T15:45:02.806Z,2.5
2018-02-24T16:00:03.055Z,2.5
2018-02-24T16:15:02.311Z,2.5
2018-02-24T16:30:02.665Z,2.5
2018-02-24T16:45:02.934Z,2.5
2018-02-24T17:00:04.035Z,2.5
2018-02-24T17:15:02.381Z,2.4
2018-02-24T17:30:02.783Z,2.4
2018-02-24T17:45:03.001Z,2.4
2018-02-24T18:00:02.289Z,2.4
2018-02-24T18:15:02.535Z,2.4
2018-02-24T18:30:02.946Z,2.4
2018-02-24T18:45:03.256Z,2.4
2018-02-24T19:00:02.501Z,2.4
2018-02-24T19:15:02.826Z,2.4
2018-02-24T19:30:03.186Z,2.3
2018-02-24T19:45:02.477Z,2.3
2018-02-24T20:00:02.732Z,2.3
2018-02-24T20:15:02.956Z,2.3
2018-02-24T20:30:02.281Z,2.2
2018-02-24T20:45:02.515Z,2.2
2018-02-24T21:00:02.777Z,2.2
2018-02-24T21:15:03.131Z,2.2
2018-02-24T21:30:02.430Z,2.2
2018-02-24T21:45:02.692Z,2.2
2018-02-24T22:00:03.025Z,2.2
2018-02-24T22:15:02.329Z,2.2
2018-02-24T22:30:02.777Z,2.2
2018-02-24T22:45:03.030Z,2.1
2018-02-24T23:00:02.305Z,2.1
2018-02-24T23:15:02.639Z,2.1
2018-02-24T23:30:03.001Z,2.1
2018-02-24T23:45:02.335Z,2.1
